Time;durP1;ratioP1;P1;durP2;ratioP2;P2;SDS_P1;SDS_P2;PMS_P1;PMS_P2;Temp;Humidity;BMP_temperature;BMP_pressure;BME280_temperature;BME280_humidity;BME280_pressure;Samples;Min_cycle;Max_cycle;Signal;HPM_P1;HPM_P2
2022/10/27 00:02:22;;;;;;;;;;;13.30;99.90;;;;;;5077355;28;20003;-62
2022/10/27 00:04:48;;;;;;;;;;;13.30;99.90;;;;;;5110423;28;20406;-63
2022/10/27 00:07:13;;;;;;;;;;;13.30;99.90;;;;;;5077555;28;19989;-63
2022/10/27 00:09:39;;;;;;;;;;;13.30;99.90;;;;;;5077880;28;19924;-63
2022/10/27 00:12:04;;;;;;;;;;;13.30;99.90;;;;;;5076542;28;19933;-67
2022/10/27 00:14:30;;;;;;;;;;;13.30;99.90;;;;;;5077696;28;20356;-63
2022/10/27 00:16:55;;;;;;;;;;;13.30;99.90;;;;;;5077810;28;20251;-64
2022/10/27 00:19:22;;;;;;;;;;;13.30;99.90;;;;;;5076444;28;19932;-64
2022/10/27 00:21:49;;;;;;;;;;;13.30;99.90;;;;;;5093601;28;19931;-63
2022/10/27 00:24:15;;;;;;;;;;;13.30;99.90;;;;;;5076300;28;19924;-63
2022/10/27 00:26:40;;;;;;;;;;;13.40;99.90;;;;;;5077833;28;20003;-64
2022/10/27 00:29:06;;;;;;;;;;;13.40;99.90;;;;;;5110411;28;19928;-67
2022/10/27 00:31:31;;;;;;;;;;;13.40;99.90;;;;;;5076424;28;20019;-64
2022/10/27 00:33:57;;;;;;;;;;;13.40;99.90;;;;;;5074247;28;20371;-63
2022/10/27 00:36:23;;;;;;;;;;;13.40;99.90;;;;;;5073617;28;19978;-63
2022/10/27 00:38:52;;;;;;;;;;;13.40;99.90;;;;;;5074372;28;19931;-63
2022/10/27 00:41:27;;;;;;;;;;;13.30;99.90;;;;;;5089306;28;20368;-64
2022/10/27 00:43:52;;;;;;;;;;;13.30;99.90;;;;;;5107175;28;19924;-64
2022/10/27 00:46:22;;;;;;;;;;;13.30;99.90;;;;;;5073480;28;19977;-63
2022/10/27 00:48:48;;;;;;;;;;;13.30;99.90;;;;;;5074292;28;19928;-63
2022/10/27 00:51:15;;;;;;;;;;;13.30;99.90;;;;;;5073788;28;19925;-63
2022/10/27 00:53:41;;;;;;;;;;;13.30;99.90;;;;;;5073987;28;20011;-63
2022/10/27 00:56:07;;;;;;;;;;;13.30;99.90;;;;;;5074157;28;20016;-63
2022/10/27 00:58:33;;;;;;;;;;;13.30;99.90;;;;;;5073597;28;20430;-63
2022/10/27 01:00:59;;;;;;;;;;;13.30;99.90;;;;;;5074039;28;20364;-64
2022/10/27 01:03:25;;;;;;;;;;;13.30;99.90;;;;;;5106374;28;19924;-64
2022/10/27 01:05:51;;;;;;;;;;;13.30;99.90;;;;;;5106805;28;19931;-63
2022/10/27 01:08:16;;;;;;;;;;;13.30;99.90;;;;;;5089252;28;19976;-63
2022/10/27 01:10:42;;;;;;;;;;;13.30;99.90;;;;;;5106686;28;19933;-63
2022/10/27 01:13:08;;;;;;;;;;;13.30;99.90;;;;;;5073930;28;20359;-63
2022/10/27 01:15:49;;;;;;;;;;;13.30;99.90;;;;;;5073361;28;19924;-64
2022/10/27 01:18:20;;;;;;;;;;;13.30;99.90;;;;;;5073158;28;20290;-64
2022/10/27 01:21:03;;;;;;;;;;;13.30;99.90;;;;;;5073614;28;19931;-63
2022/10/27 01:23:44;;;;;;;;;;;13.30;99.90;;;;;;5072381;28;20283;-64
2022/10/27 01:26:13;;;;;;;;;;;13.30;99.90;;;;;;5073703;28;19970;-63
2022/10/27 01:28:57;;;;;;;;;;;13.30;99.90;;;;;;5073307;28;19930;-63
2022/10/27 01:31:28;;;;;;;;;;;13.30;99.90;;;;;;5073133;28;19932;-64
2022/10/27 01:33:54;;;;;;;;;;;13.30;99.90;;;;;;5073458;28;19928;-63
2022/10/27 01:36:22;;;;;;;;;;;13.30;99.90;;;;;;5088667;28;19931;-64
2022/10/27 01:38:53;;;;;;;;;;;13.30;99.90;;;;;;5073216;28;19972;-64
2022/10/27 01:41:25;;;;;;;;;;;13.30;99.90;;;;;;5072913;28;20353;-64
2022/10/27 01:43:53;;;;;;;;;;;13.40;99.90;;;;;;5071798;28;19978;-64
2022/10/27 01:46:19;;;;;;;;;;;13.30;99.90;;;;;;5104365;28;19975;-64
2022/10/27 01:48:45;;;;;;;;;;;13.30;99.90;;;;;;5105534;28;19983;-64
2022/10/27 01:51:11;;;;;;;;;;;13.30;99.90;;;;;;5073084;28;19940;-63
2022/10/27 01:53:40;;;;;;;;;;;13.30;99.90;;;;;;5071791;28;20499;-63
2022/10/27 01:56:05;;;;;;;;;;;13.30;99.90;;;;;;5072994;28;19924;-64
2022/10/27 01:58:50;;;;;;;;;;;13.30;99.90;;;;;;5070983;28;19924;-63
2022/10/27 02:01:34;;;;;;;;;;;13.30;99.90;;;;;;5072798;28;19925;-63
2022/10/27 02:04:00;;;;;;;;;;;13.40;99.90;;;;;;5071902;28;19931;-63
2022/10/27 02:06:32;;;;;;;;;;;13.40;99.90;;;;;;5105123;28;20011;-63
2022/10/27 02:09:07;;;;;;;;;;;13.40;99.90;;;;;;5072530;28;19941;-63
2022/10/27 02:11:34;;;;;;;;;;;13.30;99.90;;;;;;5072251;28;19925;-63
2022/10/27 02:14:00;;;;;;;;;;;13.30;99.90;;;;;;5072375;28;19932;-63
2022/10/27 02:16:29;;;;;;;;;;;13.30;99.90;;;;;;5071251;28;20290;-63
2022/10/27 02:18:59;;;;;;;;;;;13.30;99.90;;;;;;5072353;28;20008;-63
2022/10/27 02:21:24;;;;;;;;;;;13.30;99.90;;;;;;5070880;28;20351;-63
2022/10/27 02:23:51;;;;;;;;;;;13.30;99.90;;;;;;5072496;28;20019;-64
2022/10/27 02:26:17;;;;;;;;;;;13.30;99.90;;;;;;5072497;28;19924;-64
2022/10/27 02:28:46;;;;;;;;;;;13.30;99.90;;;;;;5071545;28;19925;-63
2022/10/27 02:31:13;;;;;;;;;;;13.30;99.90;;;;;;5088293;28;19931;-64
2022/10/27 02:33:38;;;;;;;;;;;13.20;99.90;;;;;;5071886;28;20034;-63
2022/10/27 02:36:04;;;;;;;;;;;13.30;99.90;;;;;;5071503;28;19984;-62
2022/10/27 02:38:30;;;;;;;;;;;13.30;99.90;;;;;;5071635;28;19931;-64
2022/10/27 02:40:55;;;;;;;;;;;13.30;99.90;;;;;;5072089;28;19925;-63
2022/10/27 02:43:21;;;;;;;;;;;13.30;99.90;;;;;;5070926;28;19925;-63
2022/10/27 02:45:46;;;;;;;;;;;13.30;99.90;;;;;;5087076;28;19970;-63
2022/10/27 02:48:12;;;;;;;;;;;13.30;99.90;;;;;;5071524;28;19925;-64
2022/10/27 02:50:38;;;;;;;;;;;13.30;99.90;;;;;;5071479;28;20385;-63
2022/10/27 02:53:03;;;;;;;;;;;13.30;99.90;;;;;;5071001;28;20023;-63
2022/10/27 02:55:29;;;;;;;;;;;13.30;99.90;;;;;;5104047;28;20029;-63
2022/10/27 02:57:54;;;;;;;;;;;13.30;99.90;;;;;;5071405;28;19935;-63
2022/10/27 03:00:20;;;;;;;;;;;13.30;99.90;;;;;;5070729;28;19924;-65
2022/10/27 03:02:46;;;;;;;;;;;13.30;99.90;;;;;;5069873;28;19972;-63
2022/10/27 03:05:12;;;;;;;;;;;13.30;99.90;;;;;;5070605;28;20277;-63
2022/10/27 03:07:37;;;;;;;;;;;13.30;99.90;;;;;;5071170;28;19970;-64
2022/10/27 03:10:03;;;;;;;;;;;13.30;99.90;;;;;;5071703;28;19950;-64
2022/10/27 03:12:28;;;;;;;;;;;13.30;99.90;;;;;;5071129;28;19925;-64
2022/10/27 03:14:54;;;;;;;;;;;13.40;99.90;;;;;;5071656;28;19994;-64
2022/10/27 03:17:20;;;;;;;;;;;13.40;99.90;;;;;;5070488;28;19925;-63
2022/10/27 03:19:46;;;;;;;;;;;13.40;99.90;;;;;;5071360;28;19925;-64
2022/10/27 03:22:11;;;;;;;;;;;13.40;99.90;;;;;;5071568;28;19955;-64
2022/10/27 03:24:37;;;;;;;;;;;13.40;99.90;;;;;;5071124;28;19925;-63
2022/10/27 03:27:02;;;;;;;;;;;13.40;99.90;;;;;;5071530;28;19932;-63
2022/10/27 03:29:28;;;;;;;;;;;13.40;99.90;;;;;;5104143;28;20391;-67
2022/10/27 03:31:53;;;;;;;;;;;13.40;99.90;;;;;;5087147;28;19928;-63
2022/10/27 03:34:19;;;;;;;;;;;13.40;99.90;;;;;;5071522;28;19939;-64
2022/10/27 03:36:45;;;;;;;;;;;13.30;99.90;;;;;;5086692;28;20019;-64
2022/10/27 03:39:10;;;;;;;;;;;13.40;99.90;;;;;;5087137;28;19931;-64
2022/10/27 03:41:36;;;;;;;;;;;13.40;99.90;;;;;;5070837;28;19924;-63
2022/10/27 03:44:01;;;;;;;;;;;13.40;99.90;;;;;;5070836;28;20115;-64
2022/10/27 03:46:27;;;;;;;;;;;13.30;99.90;;;;;;5071439;28;20352;-65
2022/10/27 03:48:53;;;;;;;;;;;13.40;99.90;;;;;;5070482;28;19997;-63
2022/10/27 03:51:19;;;;;;;;;;;13.40;99.90;;;;;;5071475;28;20245;-63
2022/10/27 03:53:44;;;;;;;;;;;13.40;99.90;;;;;;5070904;28;19935;-63
2022/10/27 03:56:11;;;;;;;;;;;13.40;99.90;;;;;;5070028;28;19924;-62
2022/10/27 03:58:37;;;;;;;;;;;13.40;99.90;;;;;;5069677;28;19925;-63
2022/10/27 04:01:03;;;;;;;;;;;13.40;99.90;;;;;;5103664;28;20046;-62
2022/10/27 04:03:29;;;;;;;;;;;13.30;99.90;;;;;;5071250;28;19931;-63
2022/10/27 04:05:54;;;;;;;;;;;13.30;99.90;;;;;;5070361;28;19928;-63
2022/10/27 04:08:20;;;;;;;;;;;13.30;99.90;;;;;;5071605;28;19925;-64
2022/10/27 04:10:45;;;;;;;;;;;13.30;99.90;;;;;;5073997;28;19925;-63
2022/10/27 04:13:11;;;;;;;;;;;13.30;99.90;;;;;;5107409;28;19932;-63
2022/10/27 04:15:36;;;;;;;;;;;13.30;99.90;;;;;;5074424;28;19970;-63
2022/10/27 04:18:02;;;;;;;;;;;13.30;99.90;;;;;;5090471;28;19924;-63
2022/10/27 04:20:28;;;;;;;;;;;13.30;99.90;;;;;;5074449;28;19935;-63
2022/10/27 04:22:55;;;;;;;;;;;13.20;99.90;;;;;;5074352;28;19931;-63
2022/10/27 04:25:21;;;;;;;;;;;13.30;99.90;;;;;;5073431;28;19924;-62
2022/10/27 04:27:46;;;;;;;;;;;13.30;99.90;;;;;;5074304;28;20345;-62
2022/10/27 04:30:12;;;;;;;;;;;13.30;99.90;;;;;;5073414;28;19924;-64
2022/10/27 04:32:38;;;;;;;;;;;13.20;99.90;;;;;;5074291;28;20298;-67
2022/10/27 04:35:04;;;;;;;;;;;13.20;99.90;;;;;;5074270;28;20272;-65
2022/10/27 04:37:29;;;;;;;;;;;13.20;99.90;;;;;;5074258;28;20034;-63
2022/10/27 04:39:55;;;;;;;;;;;13.30;99.90;;;;;;5073920;28;19924;-65
2022/10/27 04:42:21;;;;;;;;;;;13.30;99.90;;;;;;5074029;28;19931;-63
2022/10/27 04:44:46;;;;;;;;;;;13.30;99.90;;;;;;5106073;28;20367;-63
2022/10/27 04:47:12;;;;;;;;;;;13.30;99.90;;;;;;5072694;28;20393;-68
2022/10/27 04:49:39;;;;;;;;;;;13.30;99.90;;;;;;5073124;28;21254;-67
2022/10/27 04:52:05;;;;;;;;;;;13.20;99.90;;;;;;5073175;28;19925;-63
2022/10/27 04:54:30;;;;;;;;;;;13.30;99.90;;;;;;5106972;28;19924;-64
2022/10/27 04:56:56;;;;;;;;;;;13.30;99.90;;;;;;5073269;28;20287;-64
2022/10/27 04:59:21;;;;;;;;;;;13.20;99.90;;;;;;5074158;28;19925;-62
2022/10/27 05:01:47;;;;;;;;;;;13.30;99.90;;;;;;5073662;28;19945;-63
2022/10/27 05:04:13;;;;;;;;;;;13.30;99.90;;;;;;5089737;28;20466;-63
2022/10/27 05:06:38;;;;;;;;;;;13.30;99.90;;;;;;5074003;28;19947;-64
2022/10/27 05:09:04;;;;;;;;;;;13.20;99.90;;;;;;5073680;28;19929;-62
2022/10/27 05:11:29;;;;;;;;;;;13.20;99.90;;;;;;5073913;28;20343;-63
2022/10/27 05:13:55;;;;;;;;;;;13.30;99.90;;;;;;5072252;28;19931;-62
2022/10/27 05:16:20;;;;;;;;;;;13.20;99.90;;;;;;5089269;28;19944;-64
2022/10/27 05:18:46;;;;;;;;;;;13.20;99.90;;;;;;5072958;28;19950;-62
2022/10/27 05:21:11;;;;;;;;;;;13.20;99.90;;;;;;5072512;28;20363;-62
2022/10/27 05:23:37;;;;;;;;;;;13.10;99.90;;;;;;5073728;28;19925;-63
2022/10/27 05:26:03;;;;;;;;;;;13.20;99.90;;;;;;5106213;28;19977;-63
2022/10/27 05:28:28;;;;;;;;;;;13.10;99.90;;;;;;5073560;28;19924;-64
2022/10/27 05:30:57;;;;;;;;;;;13.10;99.90;;;;;;5072997;28;19928;-64
2022/10/27 05:33:23;;;;;;;;;;;13.10;99.90;;;;;;5072293;28;20011;-64
2022/10/27 05:35:49;;;;;;;;;;;12.80;99.90;;;;;;5072072;28;19979;-64
2022/10/27 05:38:15;;;;;;;;;;;13.10;99.90;;;;;;5105684;28;20000;-64
2022/10/27 05:40:41;;;;;;;;;;;13.20;99.90;;;;;;5089232;28;20299;-64
2022/10/27 05:43:07;;;;;;;;;;;13.10;99.90;;;;;;5072775;28;19931;-65
2022/10/27 05:45:33;;;;;;;;;;;13.10;99.90;;;;;;5072918;28;19971;-64
2022/10/27 05:47:59;;;;;;;;;;;13.20;99.90;;;;;;5104947;28;19924;-65
2022/10/27 05:50:26;;;;;;;;;;;13.20;99.90;;;;;;5105459;28;19932;-63
2022/10/27 05:52:51;;;;;;;;;;;13.20;99.90;;;;;;5105516;28;19936;-63
2022/10/27 05:55:17;;;;;;;;;;;13.30;99.90;;;;;;5071941;28;19925;-64
2022/10/27 05:57:50;;;;;;;;;;;13.30;99.90;;;;;;5088474;28;19924;-63
2022/10/27 06:00:16;;;;;;;;;;;13.20;99.90;;;;;;5072998;28;19978;-64
2022/10/27 06:02:42;;;;;;;;;;;13.20;99.90;;;;;;5105664;28;20022;-65
2022/10/27 06:05:07;;;;;;;;;;;13.20;99.90;;;;;;5071078;28;19920;-65
2022/10/27 06:07:33;;;;;;;;;;;13.20;99.90;;;;;;5072576;28;19924;-63
2022/10/27 06:09:58;;;;;;;;;;;13.20;99.90;;;;;;5071128;28;19930;-63
2022/10/27 06:12:24;;;;;;;;;;;13.20;99.90;;;;;;5072595;28;19954;-64
2022/10/27 06:14:49;;;;;;;;;;;13.20;99.90;;;;;;5072425;28;19932;-67
2022/10/27 06:17:15;;;;;;;;;;;13.20;99.90;;;;;;5088246;28;19932;-63
2022/10/27 06:19:40;;;;;;;;;;;13.20;99.90;;;;;;5071404;28;19928;-64
2022/10/27 06:22:06;;;;;;;;;;;13.20;99.90;;;;;;5070657;28;19931;-64
2022/10/27 06:24:31;;;;;;;;;;;13.20;99.90;;;;;;5072352;28;19985;-64
2022/10/27 06:26:57;;;;;;;;;;;13.20;99.90;;;;;;5104639;28;20420;-63
2022/10/27 06:29:23;;;;;;;;;;;13.20;99.90;;;;;;5072027;28;20009;-64
2022/10/27 06:31:48;;;;;;;;;;;13.20;99.90;;;;;;5104062;28;19985;-64
2022/10/27 06:34:14;;;;;;;;;;;13.20;99.90;;;;;;5070740;28;19935;-64
2022/10/27 06:36:39;;;;;;;;;;;13.20;99.90;;;;;;5072088;28;19924;-64
2022/10/27 06:39:05;;;;;;;;;;;13.20;99.90;;;;;;5070470;28;19970;-64
2022/10/27 06:41:30;;;;;;;;;;;13.20;99.90;;;;;;5104611;28;19925;-65
2022/10/27 06:43:56;;;;;;;;;;;13.20;99.90;;;;;;5070660;28;19924;-64
2022/10/27 06:46:21;;;;;;;;;;;13.30;99.90;;;;;;5071862;28;19931;-64
2022/10/27 06:48:47;;;;;;;;;;;13.30;99.90;;;;;;5071267;28;19924;-63
2022/10/27 06:51:13;;;;;;;;;;;13.30;99.90;;;;;;5070368;28;20015;-63
2022/10/27 06:53:38;;;;;;;;;;;13.30;99.90;;;;;;5104092;28;20000;-63
2022/10/27 06:56:04;;;;;;;;;;;13.30;99.90;;;;;;5071650;28;20046;-64
2022/10/27 06:58:29;;;;;;;;;;;13.40;99.90;;;;;;5070354;28;19925;-64
2022/10/27 07:00:58;;;;;;;;;;;13.40;99.90;;;;;;5071692;28;19931;-67
2022/10/27 07:03:23;;;;;;;;;;;13.40;99.90;;;;;;5070744;28;20023;-64
2022/10/27 07:05:49;;;;;;;;;;;13.50;99.90;;;;;;5104749;28;20003;-63
2022/10/27 07:08:14;;;;;;;;;;;13.60;99.90;;;;;;5071359;28;19925;-64
2022/10/27 07:10:40;;;;;;;;;;;13.70;99.90;;;;;;5104615;28;19977;-63
2022/10/27 07:13:06;;;;;;;;;;;13.90;99.90;;;;;;5071304;28;19924;-63
2022/10/27 07:15:32;;;;;;;;;;;14.20;99.90;;;;;;5087228;28;19987;-64
2022/10/27 07:17:58;;;;;;;;;;;14.50;99.90;;;;;;5070235;28;19936;-67
2022/10/27 07:20:24;;;;;;;;;;;14.80;99.90;;;;;;5071552;28;20602;-64
2022/10/27 07:22:49;;;;;;;;;;;14.90;99.90;;;;;;5071707;28;19924;-63
2022/10/27 07:25:15;;;;;;;;;;;15.10;99.90;;;;;;5071420;28;20298;-65
2022/10/27 07:27:40;;;;;;;;;;;15.20;99.90;;;;;;5104238;28;19951;-63
2022/10/27 07:30:06;;;;;;;;;;;15.30;99.90;;;;;;5071246;28;20457;-64
2022/10/27 07:32:32;;;;;;;;;;;15.50;99.90;;;;;;5104027;28;19925;-65
2022/10/27 07:34:57;;;;;;;;;;;15.50;99.90;;;;;;5071426;28;20023;-64
2022/10/27 07:37:23;;;;;;;;;;;15.60;99.90;;;;;;5069897;28;20376;-64
2022/10/27 07:39:49;;;;;;;;;;;15.50;99.90;;;;;;5070367;28;20324;-63
2022/10/27 07:42:16;;;;;;;;;;;15.40;99.90;;;;;;5071838;28;19924;-64
2022/10/27 07:44:42;;;;;;;;;;;15.20;99.90;;;;;;5108037;28;19924;-64
2022/10/27 07:47:07;;;;;;;;;;;15.20;99.90;;;;;;5074744;28;19990;-64
2022/10/27 07:49:33;;;;;;;;;;;15.10;99.90;;;;;;5075001;28;19924;-65
2022/10/27 07:51:58;;;;;;;;;;;15.00;99.90;;;;;;5075375;28;19925;-64
2022/10/27 07:54:24;;;;;;;;;;;14.90;99.90;;;;;;5074738;28;19932;-64
2022/10/27 07:56:51;;;;;;;;;;;14.90;99.90;;;;;;5074977;28;20307;-65
2022/10/27 07:59:16;;;;;;;;;;;14.80;99.90;;;;;;5107111;28;20229;-64
2022/10/27 08:01:42;;;;;;;;;;;14.80;99.90;;;;;;5071542;28;19931;-63
2022/10/27 08:04:07;;;;;;;;;;;14.80;99.90;;;;;;5073100;28;20283;-63
2022/10/27 08:06:33;;;;;;;;;;;14.80;99.90;;;;;;5075264;28;19975;-64
2022/10/27 08:08:58;;;;;;;;;;;14.90;99.90;;;;;;5074571;28;20372;-63
2022/10/27 08:11:24;;;;;;;;;;;15.00;99.90;;;;;;5074321;28;19925;-63
2022/10/27 08:13:51;;;;;;;;;;;15.10;99.90;;;;;;5074055;28;20395;-63
2022/10/27 08:16:16;;;;;;;;;;;15.10;99.90;;;;;;5107300;28;19953;-63
2022/10/27 08:18:42;;;;;;;;;;;15.30;99.90;;;;;;5073507;28;19924;-63
2022/10/27 08:21:08;;;;;;;;;;;15.30;99.90;;;;;;5074030;28;19925;-64
2022/10/27 08:23:33;;;;;;;;;;;15.50;99.90;;;;;;5074267;28;20067;-63
2022/10/27 08:25:59;;;;;;;;;;;15.90;99.90;;;;;;5106497;28;19924;-64
2022/10/27 08:28:25;;;;;;;;;;;16.50;99.90;;;;;;5072651;28;19931;-65
2022/10/27 08:30:51;;;;;;;;;;;16.80;99.90;;;;;;5089808;28;19982;-65
2022/10/27 08:33:17;;;;;;;;;;;17.00;99.90;;;;;;5073461;28;19924;-65
2022/10/27 08:35:42;;;;;;;;;;;17.00;99.90;;;;;;5074053;28;19931;-64
2022/10/27 08:38:15;;;;;;;;;;;16.90;99.90;;;;;;5106649;28;19935;-69
2022/10/27 08:40:50;;;;;;;;;;;16.70;99.90;;;;;;5073178;28;20024;-65
2022/10/27 08:43:29;;;;;;;;;;;16.50;99.90;;;;;;5089440;28;20003;-64
2022/10/27 08:46:00;;;;;;;;;;;16.40;99.90;;;;;;5074131;28;20247;-67
2022/10/27 08:48:26;;;;;;;;;;;16.30;99.90;;;;;;5073099;28;19936;-65
2022/10/27 08:50:52;;;;;;;;;;;16.30;99.90;;;;;;5106169;28;19925;-65
2022/10/27 08:53:28;;;;;;;;;;;16.20;99.90;;;;;;5072817;28;19932;-67
2022/10/27 08:55:57;;;;;;;;;;;16.30;99.90;;;;;;5073043;28;19924;-66
2022/10/27 08:58:40;;;;;;;;;;;16.20;99.90;;;;;;5072172;28;19924;-66
2022/10/27 09:01:18;;;;;;;;;;;16.30;99.90;;;;;;5072833;28;20106;-65
2022/10/27 09:04:03;;;;;;;;;;;16.30;99.90;;;;;;5072842;28;20206;-65
2022/10/27 09:06:39;;;;;;;;;;;16.40;99.90;;;;;;5072527;28;19925;-65
2022/10/27 09:09:10;;;;;;;;;;;16.40;99.90;;;;;;5073721;28;19928;-65
2022/10/27 09:11:42;;;;;;;;;;;16.50;99.90;;;;;;5072588;28;19936;-66
2022/10/27 09:14:26;;;;;;;;;;;16.50;99.90;;;;;;5073843;28;19978;-66
2022/10/27 09:16:58;;;;;;;;;;;16.60;99.90;;;;;;5072763;28;20028;-65
2022/10/27 09:19:30;;;;;;;;;;;16.60;99.90;;;;;;5073104;28;19925;-66
2022/10/27 09:21:56;;;;;;;;;;;16.70;99.90;;;;;;5072921;28;19928;-65
2022/10/27 09:24:23;;;;;;;;;;;16.80;99.90;;;;;;5073367;28;19924;-66
2022/10/27 09:26:49;;;;;;;;;;;16.80;99.90;;;;;;5073417;28;19983;-65
2022/10/27 09:29:18;;;;;;;;;;;16.90;99.90;;;;;;5105867;28;20411;-65
2022/10/27 09:31:50;;;;;;;;;;;16.90;99.90;;;;;;5072406;28;19948;-65
2022/10/27 09:34:21;;;;;;;;;;;17.00;99.90;;;;;;5072933;28;19925;-65
2022/10/27 09:36:47;;;;;;;;;;;17.00;99.90;;;;;;5106345;28;19925;-65
2022/10/27 09:39:12;;;;;;;;;;;17.00;99.90;;;;;;5072987;28;19929;-71
2022/10/27 09:41:38;;;;;;;;;;;17.00;99.90;;;;;;5072916;28;19977;-66
2022/10/27 09:44:13;;;;;;;;;;;17.10;99.90;;;;;;5073305;28;19986;-65
2022/10/27 09:46:38;;;;;;;;;;;17.10;99.90;;;;;;5073259;28;19935;-64
2022/10/27 09:49:04;;;;;;;;;;;17.20;99.90;;;;;;5104951;28;19932;-65
2022/10/27 09:51:50;;;;;;;;;;;17.20;99.90;;;;;;5105316;28;19932;-64
2022/10/27 09:54:32;;;;;;;;;;;17.20;99.90;;;;;;5072471;28;19936;-69
2022/10/27 09:57:18;;;;;;;;;;;17.30;99.90;;;;;;5072010;28;19925;-65
2022/10/27 09:59:59;;;;;;;;;;;17.40;99.90;;;;;;5072957;28;19940;-64
2022/10/27 10:02:29;;;;;;;;;;;17.40;99.90;;;;;;5072272;28;19973;-66
2022/10/27 10:04:55;;;;;;;;;;;17.50;99.90;;;;;;5072643;28;19935;-65
2022/10/27 10:07:32;;;;;;;;;;;17.50;99.90;;;;;;5072410;28;19924;-65
2022/10/27 10:10:07;;;;;;;;;;;17.50;99.90;;;;;;5072777;28;19932;-65
2022/10/27 10:12:32;;;;;;;;;;;17.50;99.90;;;;;;5072652;28;19965;-63
2022/10/27 10:15:10;;;;;;;;;;;17.60;99.90;;;;;;5072583;28;20018;-63
2022/10/27 10:17:39;;;;;;;;;;;17.60;99.90;;;;;;5072153;28;19924;-63
2022/10/27 10:20:05;;;;;;;;;;;17.60;99.90;;;;;;5072984;28;19924;-63
2022/10/27 10:22:33;;;;;;;;;;;17.60;99.90;;;;;;5070928;28;20057;-64
2022/10/27 10:25:01;;;;;;;;;;;17.70;99.90;;;;;;5071521;28;20015;-63
2022/10/27 10:27:29;;;;;;;;;;;17.70;99.90;;;;;;5071853;28;20425;-64
2022/10/27 10:29:56;;;;;;;;;;;17.70;99.90;;;;;;5071338;28;19929;-63
2022/10/27 10:32:22;;;;;;;;;;;17.80;99.90;;;;;;5072105;28;20283;-64
2022/10/27 10:34:52;;;;;;;;;;;17.90;99.90;;;;;;5072516;28;19925;-64
2022/10/27 10:37:30;;;;;;;;;;;18.00;99.90;;;;;;5071172;28;20015;-64
2022/10/27 10:40:28;;;;;;;;;;;18.10;99.90;;;;;;5072509;28;20415;-64
2022/10/27 10:43:01;;;;;;;;;;;18.10;99.90;;;;;;5070529;28;20341;-65
2022/10/27 10:45:29;;;;;;;;;;;18.10;99.90;;;;;;5070695;28;20369;-65
2022/10/27 10:47:56;;;;;;;;;;;18.20;99.90;;;;;;5105123;28;19951;-65
2022/10/27 10:50:22;;;;;;;;;;;18.20;99.90;;;;;;5070356;28;19924;-67
2022/10/27 10:52:52;;;;;;;;;;;18.20;99.90;;;;;;5104575;28;19970;-64
2022/10/27 10:55:34;;;;;;;;;;;18.30;99.90;;;;;;5072148;28;20019;-64
2022/10/27 10:58:00;;;;;;;;;;;18.30;99.90;;;;;;5071249;28;20029;-64
2022/10/27 11:00:26;;;;;;;;;;;18.40;99.90;;;;;;5104828;28;19975;-67
2022/10/27 11:02:54;;;;;;;;;;;18.40;99.90;;;;;;5072101;28;19939;-64
2022/10/27 11:05:23;;;;;;;;;;;18.50;99.90;;;;;;5072118;28;19924;-64
2022/10/27 11:07:49;;;;;;;;;;;18.60;99.90;;;;;;5072074;28;19975;-66
2022/10/27 11:10:18;;;;;;;;;;;18.70;99.90;;;;;;5087714;28;20011;-64
2022/10/27 11:12:45;;;;;;;;;;;18.80;99.90;;;;;;5070610;28;19925;-63
2022/10/27 11:15:14;;;;;;;;;;;18.80;99.90;;;;;;5071804;28;20364;-64
2022/10/27 11:17:40;;;;;;;;;;;18.90;99.90;;;;;;5071147;28;19978;-64
2022/10/27 11:20:12;;;;;;;;;;;19.00;99.90;;;;;;5070938;28;19925;-64
2022/10/27 11:22:38;;;;;;;;;;;19.00;99.90;;;;;;5070224;28;19924;-66
2022/10/27 11:25:06;;;;;;;;;;;19.00;99.90;;;;;;5071842;28;19958;-65
2022/10/27 11:27:36;;;;;;;;;;;19.10;99.90;;;;;;5071578;28;20012;-65
2022/10/27 11:30:04;;;;;;;;;;;19.10;99.90;;;;;;5071803;28;19925;-64
2022/10/27 11:32:48;;;;;;;;;;;19.10;99.90;;;;;;5070218;28;20447;-64
2022/10/27 11:35:33;;;;;;;;;;;19.10;99.90;;;;;;5071510;28;19925;-64
2022/10/27 11:38:08;;;;;;;;;;;19.20;99.90;;;;;;5070528;28;19925;-64
2022/10/27 11:40:40;;;;;;;;;;;19.20;99.90;;;;;;5103990;28;20003;-64
2022/10/27 11:43:08;;;;;;;;;;;19.30;99.90;;;;;;5071318;28;19928;-65
2022/10/27 11:45:39;;;;;;;;;;;19.30;99.90;;;;;;5070191;28;20302;-65
2022/10/27 11:48:21;;;;;;;;;;;19.40;99.90;;;;;;5071505;28;19928;-64
2022/10/27 11:50:55;;;;;;;;;;;19.40;99.90;;;;;;5070073;28;19974;-64
2022/10/27 11:53:21;;;;;;;;;;;19.50;99.90;;;;;;5104100;28;19924;-64
2022/10/27 11:55:58;;;;;;;;;;;19.60;99.90;;;;;;5086708;28;19931;-64
2022/10/27 11:58:43;;;;;;;;;;;19.60;99.90;;;;;;5103639;28;19928;-64
2022/10/27 12:01:18;;;;;;;;;;;19.70;99.90;;;;;;5071066;28;19925;-65
2022/10/27 12:04:03;;;;;;;;;;;19.70;99.90;;;;;;5070982;28;19932;-64
2022/10/27 12:06:29;;;;;;;;;;;19.80;99.90;;;;;;5071179;28;19924;-63
2022/10/27 12:08:57;;;;;;;;;;;19.90;99.90;;;;;;5070939;28;19921;-65
2022/10/27 12:11:26;;;;;;;;;;;20.00;99.90;;;;;;5070872;28;19950;-63
2022/10/27 12:13:57;;;;;;;;;;;20.00;99.90;;;;;;5069824;28;19968;-63
2022/10/27 12:16:29;;;;;;;;;;;20.10;99.90;;;;;;5070981;28;19925;-64
2022/10/27 12:19:16;;;;;;;;;;;20.00;99.90;;;;;;5069554;28;19928;-64
2022/10/27 12:21:43;;;;;;;;;;;20.00;99.90;;;;;;5069865;28;20489;-63
2022/10/27 12:24:12;;;;;;;;;;;20.00;99.90;;;;;;5071475;28;19970;-64
2022/10/27 12:26:37;;;;;;;;;;;20.00;99.90;;;;;;5070728;28;20295;-63
2022/10/27 12:29:04;;;;;;;;;;;20.00;99.90;;;;;;5104104;28;19931;-63
2022/10/27 12:31:32;;;;;;;;;;;20.00;99.90;;;;;;5074556;28;20272;-64
2022/10/27 12:33:59;;;;;;;;;;;20.00;99.90;;;;;;5106970;28;19931;-64
2022/10/27 12:36:25;;;;;;;;;;;20.00;99.90;;;;;;5073288;28;20401;-63
2022/10/27 12:38:55;;;;;;;;;;;20.00;99.90;;;;;;5074305;28;19925;-64
2022/10/27 12:41:27;;;;;;;;;;;20.00;99.90;;;;;;5105977;28;19932;-68
2022/10/27 12:44:02;;;;;;;;;;;19.90;99.90;;;;;;5073651;28;19928;-65
2022/10/27 12:46:39;;;;;;;;;;;19.90;99.90;;;;;;5106371;28;20001;-66
2022/10/27 12:49:25;;;;;;;;;;;19.80;99.90;;;;;;5106033;28;19930;-65
2022/10/27 12:51:53;;;;;;;;;;;19.80;99.90;;;;;;5072230;28;20346;-64
2022/10/27 12:54:25;;;;;;;;;;;19.70;99.90;;;;;;5073735;28;19924;-64
2022/10/27 12:57:14;;;;;;;;;;;19.80;99.90;;;;;;5072476;28;20341;-63
2022/10/27 12:59:58;;;;;;;;;;;19.80;99.90;;;;;;5074221;28;19931;-63
2022/10/27 13:02:26;;;;;;;;;;;19.80;99.90;;;;;;5073900;28;20306;-63
2022/10/27 13:04:58;;;;;;;;;;;19.80;99.90;;;;;;5073940;28;19996;-64
2022/10/27 13:07:43;;;;;;;;;;;19.70;99.90;;;;;;5072600;28;19935;-64
2022/10/27 13:10:23;;;;;;;;;;;19.80;99.90;;;;;;5072689;28;20383;-67
2022/10/27 13:13:07;;;;;;;;;;;19.70;99.90;;;;;;5073484;28;19925;-64
2022/10/27 13:15:45;;;;;;;;;;;19.70;99.90;;;;;;5073028;28;20290;-63
2022/10/27 13:18:23;;;;;;;;;;;19.60;99.90;;;;;;5088375;28;19925;-65
2022/10/27 13:20:59;;;;;;;;;;;19.60;99.90;;;;;;5106077;28;20038;-65
2022/10/27 13:23:42;;;;;;;;;;;19.50;99.90;;;;;;5072199;28;20016;-65
2022/10/27 13:26:08;;;;;;;;;;;19.50;99.90;;;;;;5104250;28;20417;-66
2022/10/27 13:28:40;;;;;;;;;;;19.50;99.90;;;;;;5071978;28;19929;-65
2022/10/27 13:31:15;;;;;;;;;;;19.40;99.90;;;;;;5106108;28;19924;-65
2022/10/27 13:33:56;;;;;;;;;;;19.40;99.90;;;;;;5073499;28;19978;-71
2022/10/27 13:36:22;;;;;;;;;;;19.30;99.90;;;;;;5073311;28;20362;-66
2022/10/27 13:38:49;;;;;;;;;;;19.30;99.90;;;;;;5072408;28;19950;-65
2022/10/27 13:41:33;;;;;;;;;;;19.20;99.90;;;;;;5073077;28;19932;-65
2022/10/27 13:43:58;;;;;;;;;;;19.20;99.90;;;;;;5071667;28;19925;-65
2022/10/27 13:46:50;;;;;;;;;;;19.20;99.90;;;;;;5072200;28;19936;-65
2022/10/27 13:49:34;;;;;;;;;;;19.20;99.90;;;;;;5071328;28;19948;-65
2022/10/27 13:52:11;;;;;;;;;;;19.20;99.90;;;;;;5071878;28;19924;-65
2022/10/27 13:54:56;;;;;;;;;;;19.00;99.90;;;;;;5072313;28;20008;-65
2022/10/27 13:57:28;;;;;;;;;;;19.10;99.90;;;;;;5071745;28;19928;-65
2022/10/27 13:59:55;;;;;;;;;;;19.10;99.90;;;;;;5105118;28;20457;-65
2022/10/27 14:02:25;;;;;;;;;;;19.10;99.90;;;;;;5072081;28;19931;-64
2022/10/27 14:04:55;;;;;;;;;;;19.10;99.90;;;;;;5071576;28;20368;-64
2022/10/27 14:07:20;;;;;;;;;;;19.10;99.90;;;;;;5071654;28;19994;-65
2022/10/27 14:09:50;;;;;;;;;;;19.00;99.90;;;;;;5088159;28;19976;-66
2022/10/27 14:12:24;;;;;;;;;;;19.00;99.90;;;;;;5088724;28;19931;-65
2022/10/27 14:14:52;;;;;;;;;;;19.00;99.90;;;;;;5071237;28;19950;-64
2022/10/27 14:17:21;;;;;;;;;;;18.90;99.90;;;;;;5072245;28;19925;-64
2022/10/27 14:20:07;;;;;;;;;;;18.90;99.90;;;;;;5071131;28;19925;-65
2022/10/27 14:22:35;;;;;;;;;;;18.80;99.90;;;;;;5071247;28;19931;-65
2022/10/27 14:25:19;;;;;;;;;;;18.70;99.90;;;;;;5072351;28;20046;-64
2022/10/27 14:27:44;;;;;;;;;;;18.70;99.90;;;;;;5070859;28;19935;-65